createdAt,value
2018-03-27T00:01:21.904Z,-0.40
2018-03-27T00:03:49.456Z,-0.50
2018-03-27T00:06:17.030Z,-0.40
2018-03-27T00:08:44.623Z,-0.40
2018-03-27T00:11:12.564Z,-0.30
2018-03-27T00:13:40.219Z,-0.30
2018-03-27T00:16:07.861Z,-0.40
2018-03-27T00:18:35.418Z,-0.40
2018-03-27T00:21:03.372Z,-0.30
2018-03-27T00:23:31.152Z,-0.40
2018-03-27T00:25:58.779Z,-0.30
2018-03-27T00:28:39.150Z,-0.40
2018-03-27T00:31:19.326Z,-0.40
2018-03-27T00:33:58.684Z,-0.40
2018-03-27T00:36:38.012Z,-0.40
2018-03-27T00:39:17.715Z,-0.50
2018-03-27T00:44:56.304Z,-0.50
2018-03-27T00:47:24.005Z,-0.60
2018-03-27T00:49:51.585Z,-0.60
2018-03-27T00:52:19.259Z,-0.70
2018-03-27T00:54:47.106Z,-0.70
2018-03-27T00:57:15.582Z,-0.60
2018-03-27T00:59:43.949Z,-0.60
2018-03-27T01:02:12.063Z,-0.60
2018-03-27T01:04:39.818Z,-0.50
2018-03-27T01:07:07.438Z,-0.50
2018-03-27T01:09:35.821Z,-0.60
2018-03-27T01:12:03.382Z,-0.60
2018-03-27T01:14:31.742Z,-0.50
2018-03-27T01:16:59.365Z,-0.60
2018-03-27T01:19:26.935Z,-0.40
2018-03-27T01:21:54.672Z,-0.40
2018-03-27T01:24:22.238Z,-0.50
2018-03-27T01:26:49.794Z,-0.60
2018-03-27T01:29:17.392Z,-0.60
2018-03-27T01:31:44.953Z,-0.50
2018-03-27T01:34:12.724Z,-0.50
2018-03-27T01:36:40.414Z,-0.40
2018-03-27T01:39:08.648Z,-0.50
2018-03-27T01:41:36.210Z,-0.50
2018-03-27T01:44:03.874Z,-0.50
2018-03-27T01:46:31.489Z,-0.50
2018-03-27T01:48:59.065Z,-0.40
2018-03-27T01:51:26.662Z,-0.40
2018-03-27T01:53:54.218Z,-0.40
2018-03-27T01:56:22.624Z,-0.30
2018-03-27T01:58:50.234Z,-0.30
2018-03-27T02:01:17.889Z,-0.20
2018-03-27T02:03:45.462Z,-0.20
2018-03-27T02:06:13.126Z,-0.30
2018-03-27T02:08:40.678Z,-0.30
2018-03-27T02:11:13.838Z,-0.20
2018-03-27T02:13:46.938Z,-0.20
2018-03-27T02:16:20.162Z,-0.30
2018-03-27T02:18:54.557Z,-0.30
2018-03-27T02:21:24.649Z,-0.30
2018-03-27T02:26:52.805Z,-0.30
2018-03-27T02:29:21.218Z,-0.20
2018-03-27T02:31:48.779Z,-0.20
2018-03-27T02:34:16.438Z,-0.20
2018-03-27T02:36:44.008Z,-0.10
2018-03-27T02:39:11.571Z,-0.10
2018-03-27T02:41:39.235Z,0.00
2018-03-27T02:44:06.821Z,-0.10
2018-03-27T02:46:35.163Z,0.00
2018-03-27T02:49:03.095Z,0.00
2018-03-27T02:51:30.772Z,0.10
2018-03-27T02:53:58.481Z,0.10
2018-03-27T02:56:26.071Z,0.10
2018-03-27T02:58:53.666Z,0.00
2018-03-27T03:01:21.340Z,-0.10
2018-03-27T03:03:49.088Z,-0.10
2018-03-27T03:06:16.654Z,-0.10
2018-03-27T03:08:44.243Z,0.00
2018-03-27T03:11:11.842Z,0.10
2018-03-27T03:13:39.454Z,0.20
2018-03-27T03:16:07.250Z,0.20
2018-03-27T03:18:35.674Z,0.20
2018-03-27T03:21:03.303Z,0.20
2018-03-27T03:23:31.063Z,0.20
2018-03-27T03:25:58.987Z,0.10
2018-03-27T03:28:26.550Z,0.20
2018-03-27T03:30:54.177Z,0.10
2018-03-27T03:33:21.802Z,0.10
2018-03-27T03:35:49.367Z,0.20
2018-03-27T03:38:16.988Z,0.30
2018-03-27T03:40:44.633Z,0.20
2018-03-27T03:43:12.242Z,0.20
2018-03-27T03:45:39.810Z,0.20
2018-03-27T03:48:07.443Z,0.20
2018-03-27T03:50:35.794Z,0.20
2018-03-27T03:53:03.449Z,0.20
2018-03-27T03:55:31.102Z,0.20
2018-03-27T03:57:58.654Z,0.20
2018-03-27T04:00:26.256Z,0.30
2018-03-27T04:02:53.867Z,0.30
2018-03-27T04:05:21.420Z,0.30
2018-03-27T04:07:48.976Z,0.30
2018-03-27T04:10:16.574Z,0.30
2018-03-27T04:12:44.135Z,0.30
2018-03-27T04:15:12.521Z,0.30
2018-03-27T04:17:40.954Z,0.30
2018-03-27T04:20:08.886Z,0.20
2018-03-27T04:22:37.207Z,0.30
2018-03-27T04:25:04.926Z,0.30
2018-03-27T04:27:32.644Z,0.30
2018-03-27T04:30:00.218Z,0.40
2018-03-27T04:32:27.893Z,0.40
2018-03-27T04:34:55.463Z,0.40
2018-03-27T04:37:23.022Z,0.40
2018-03-27T04:39:50.811Z,0.50
2018-03-27T04:42:18.405Z,0.50
2018-03-27T04:44:46.128Z,0.50
2018-03-27T04:47:13.904Z,0.50
2018-03-27T04:49:41.770Z,0.50
2018-03-27T04:52:09.550Z,0.50
2018-03-27T04:54:37.210Z,0.50
2018-03-27T04:57:04.941Z,0.50
2018-03-27T04:59:32.497Z,0.60
2018-03-27T05:02:00.166Z,0.50
2018-03-27T05:04:27.905Z,0.50
2018-03-27T05:06:55.493Z,0.50
2018-03-27T05:09:23.112Z,0.50
2018-03-27T05:11:50.780Z,0.40
2018-03-27T05:14:18.446Z,0.40
2018-03-27T05:16:46.088Z,0.40
2018-03-27T05:19:13.689Z,0.40
2018-03-27T05:21:41.334Z,0.50
2018-03-27T05:24:09.085Z,0.60
2018-03-27T05:26:36.771Z,0.70
2018-03-27T05:29:04.496Z,0.70
2018-03-27T05:31:32.211Z,0.70
2018-03-27T05:33:59.817Z,0.70
2018-03-27T05:36:28.194Z,0.70
2018-03-27T05:38:55.883Z,0.70
2018-03-27T05:41:23.769Z,0.70
2018-03-27T05:43:51.770Z,0.80
2018-03-27T05:46:19.644Z,0.80
2018-03-27T05:48:47.868Z,0.80
2018-03-27T05:51:15.590Z,0.90
2018-03-27T05:53:43.603Z,0.90
2018-03-27T05:56:11.280Z,0.90
2018-03-27T05:58:38.922Z,0.90
2018-03-27T06:01:06.797Z,0.90
2018-03-27T06:03:34.431Z,0.90
2018-03-27T06:06:02.194Z,0.90
2018-03-27T06:08:29.904Z,0.90
2018-03-27T06:10:57.545Z,0.90
2018-03-27T06:13:25.202Z,0.90
2018-03-27T06:15:52.876Z,1.00
2018-03-27T06:18:20.808Z,1.10
2018-03-27T06:20:48.697Z,1.10
2018-03-27T06:23:17.567Z,1.20
2018-03-27T06:25:45.144Z,1.20
2018-03-27T06:28:12.712Z,1.20
2018-03-27T06:30:40.941Z,1.10
2018-03-27T06:33:08.692Z,1.10
2018-03-27T06:35:36.818Z,1.20
2018-03-27T06:38:04.508Z,1.20
2018-03-27T06:40:32.092Z,1.10
2018-03-27T06:42:59.651Z,1.00
2018-03-27T06:45:28.048Z,1.00
2018-03-27T06:47:56.033Z,1.00
2018-03-27T06:50:23.827Z,1.10
2018-03-27T06:52:51.780Z,1.20
2018-03-27T06:55:20.115Z,1.20
2018-03-27T06:57:47.677Z,1.20
2018-03-27T07:00:15.785Z,1.20
2018-03-27T07:02:43.337Z,1.20
2018-03-27T07:05:11.205Z,1.20
2018-03-27T07:07:38.838Z,1.10
2018-03-27T07:10:06.429Z,1.20
2018-03-27T07:12:33.976Z,1.30
2018-03-27T07:15:01.658Z,1.20
2018-03-27T07:17:29.557Z,1.20
2018-03-27T07:19:57.994Z,1.20
2018-03-27T07:22:26.055Z,1.20
2018-03-27T07:24:53.609Z,1.30
2018-03-27T07:27:21.535Z,1.20
2018-03-27T07:29:49.265Z,1.30
2018-03-27T07:32:17.258Z,1.30
2018-03-27T07:34:45.153Z,1.40
2018-03-27T07:37:13.072Z,1.30
2018-03-27T07:39:40.881Z,1.30
2018-03-27T07:42:08.526Z,1.40
2018-03-27T07:44:36.113Z,1.40
2018-03-27T07:47:03.874Z,1.40
2018-03-27T07:49:31.981Z,1.40
2018-03-27T07:52:00.001Z,1.40
2018-03-27T07:54:27.573Z,1.40
2018-03-27T07:56:55.658Z,1.40
2018-03-27T07:59:23.344Z,1.40
2018-03-27T08:01:51.451Z,1.50
2018-03-27T08:04:19.161Z,1.50
2018-03-27T08:06:47.039Z,1.50
2018-03-27T08:09:14.698Z,1.60
2018-03-27T08:11:43.047Z,1.60
2018-03-27T08:14:10.801Z,1.50
2018-03-27T08:16:38.932Z,1.60
2018-03-27T08:19:06.499Z,1.60
2018-03-27T08:21:34.306Z,1.60
2018-03-27T08:24:02.041Z,1.60
2018-03-27T08:26:29.602Z,1.60
2018-03-27T08:28:58.465Z,1.50
2018-03-27T08:31:26.264Z,1.50
2018-03-27T08:33:54.336Z,1.50
2018-03-27T08:36:22.298Z,1.50
2018-03-27T08:38:50.722Z,1.50
2018-03-27T08:41:18.567Z,1.40
2018-03-27T08:43:46.803Z,1.50
2018-03-27T08:46:14.710Z,1.60
2018-03-27T08:48:42.625Z,1.70
2018-03-27T08:51:10.198Z,1.70
2018-03-27T08:53:38.054Z,1.70
2018-03-27T08:56:06.003Z,1.80
2018-03-27T08:58:33.753Z,1.80
2018-03-27T09:01:01.373Z,1.90
2018-03-27T09:03:29.442Z,1.90
2018-03-27T09:05:57.223Z,1.90
2018-03-27T09:08:25.118Z,2.00
2018-03-27T09:10:52.788Z,2.00
2018-03-27T09:13:20.635Z,2.10
2018-03-27T09:15:48.479Z,2.00
2018-03-27T09:18:16.038Z,2.00
2018-03-27T09:20:43.783Z,2.20
2018-03-27T09:23:11.478Z,2.10
2018-03-27T09:25:39.122Z,2.10
2018-03-27T09:28:07.024Z,2.10
2018-03-27T09:30:35.034Z,2.10
2018-03-27T09:33:02.721Z,2.20
2018-03-27T09:35:30.767Z,2.10
2018-03-27T09:37:58.554Z,2.00
2018-03-27T09:40:26.106Z,2.00
2018-03-27T09:42:54.002Z,2.00
2018-03-27T09:45:21.553Z,2.00
2018-03-27T09:47:49.152Z,1.90
2018-03-27T09:50:17.677Z,1.80
2018-03-27T09:52:45.301Z,1.90
2018-03-27T09:55:13.081Z,1.90
2018-03-27T09:57:40.821Z,2.10
2018-03-27T10:00:09.353Z,2.00
2018-03-27T10:02:37.442Z,2.00
2018-03-27T10:05:05.039Z,2.10
2018-03-27T10:07:33.387Z,2.30
2018-03-27T10:10:01.392Z,2.30
2018-03-27T10:12:28.962Z,2.30
2018-03-27T10:14:56.585Z,2.20
2018-03-27T10:17:24.518Z,2.20
2018-03-27T10:19:52.189Z,2.20
2018-03-27T10:22:19.733Z,2.50
2018-03-27T10:24:47.282Z,2.60
2018-03-27T10:27:15.369Z,2.60
2018-03-27T10:29:42.914Z,2.60
2018-03-27T10:32:10.708Z,2.90
2018-03-27T10:34:38.829Z,2.70
2018-03-27T10:37:06.650Z,2.80
2018-03-27T10:39:34.490Z,2.70
2018-03-27T10:42:02.355Z,2.40
2018-03-27T10:44:30.184Z,2.60
2018-03-27T10:46:57.865Z,2.70
2018-03-27T10:49:25.719Z,2.80
2018-03-27T10:51:53.917Z,3.00
2018-03-27T10:54:21.482Z,3.10
2018-03-27T10:56:49.919Z,3.20
2018-03-27T10:59:17.739Z,3.50
2018-03-27T11:01:45.582Z,3.60
2018-03-27T11:04:13.670Z,3.70
2018-03-27T11:06:41.289Z,3.70
2018-03-27T11:09:08.889Z,3.20
2018-03-27T11:11:36.540Z,3.00
2018-03-27T11:14:04.200Z,3.30
2018-03-27T11:16:32.251Z,3.20
2018-03-27T11:19:00.079Z,3.40
2018-03-27T11:21:27.652Z,3.60
2018-03-27T11:23:56.102Z,3.90
2018-03-27T11:26:24.738Z,4.00
2018-03-27T11:28:53.013Z,4.00
2018-03-27T11:31:20.571Z,4.10
2018-03-27T11:33:49.083Z,3.80
2018-03-27T11:36:17.496Z,4.40
2018-03-27T11:38:46.000Z,4.10
2018-03-27T11:41:13.621Z,4.10
2018-03-27T11:43:41.984Z,4.20
2018-03-27T11:46:10.043Z,4.20
2018-03-27T11:48:37.693Z,3.90
2018-03-27T11:51:05.252Z,4.00
2018-03-27T11:53:32.872Z,4.20
2018-03-27T11:56:00.972Z,4.00
2018-03-27T11:58:28.806Z,4.10
2018-03-27T12:00:56.346Z,4.40
2018-03-27T12:03:24.877Z,4.20
2018-03-27T12:05:52.832Z,4.20
2018-03-27T12:08:20.532Z,4.30
2018-03-27T12:10:48.419Z,4.30
2018-03-27T12:13:17.032Z,4.00
2018-03-27T12:15:44.958Z,3.90
2018-03-27T12:18:13.481Z,3.90
2018-03-27T12:20:41.238Z,3.90
2018-03-27T12:23:08.907Z,4.00
2018-03-27T12:25:36.864Z,4.10
2018-03-27T12:28:04.467Z,4.20
2018-03-27T12:30:32.022Z,4.00
2018-03-27T12:32:59.973Z,4.20
2018-03-27T12:35:27.688Z,4.30
2018-03-27T12:37:55.669Z,4.50
2018-03-27T12:40:23.494Z,4.50
2018-03-27T12:42:51.113Z,4.90
2018-03-27T12:45:18.905Z,4.80
2018-03-27T12:47:46.617Z,5.10
2018-03-27T12:50:14.667Z,5.10
2018-03-27T12:52:42.229Z,4.90
2018-03-27T12:55:09.954Z,4.80
2018-03-27T12:57:37.592Z,4.70
2018-03-27T13:00:05.169Z,4.50
2018-03-27T13:02:32.757Z,4.30
2018-03-27T13:05:00.306Z,4.20
2018-03-27T13:07:28.286Z,4.30
2018-03-27T13:09:55.873Z,4.40
2018-03-27T13:12:23.423Z,4.30
2018-03-27T13:14:51.914Z,4.30
2018-03-27T13:17:19.578Z,4.30
2018-03-27T13:19:47.442Z,4.40
2018-03-27T13:22:15.001Z,4.30
2018-03-27T13:24:42.678Z,4.30
2018-03-27T13:27:10.230Z,4.30
2018-03-27T13:29:38.105Z,4.20
2018-03-27T13:32:05.690Z,4.10
2018-03-27T13:34:33.359Z,4.10
2018-03-27T13:37:00.994Z,4.10
2018-03-27T13:39:28.729Z,3.90
2018-03-27T13:41:56.355Z,4.00
2018-03-27T13:44:24.393Z,3.80
2018-03-27T13:46:52.058Z,3.90
2018-03-27T13:49:19.903Z,4.00
2018-03-27T13:51:47.528Z,4.00
2018-03-27T13:54:15.131Z,4.10
2018-03-27T13:56:43.323Z,4.10
2018-03-27T13:59:10.900Z,4.20
2018-03-27T14:01:38.654Z,4.20
2018-03-27T14:04:06.210Z,4.20
2018-03-27T14:06:33.778Z,4.10
2018-03-27T14:09:01.391Z,4.10
2018-03-27T14:11:28.951Z,3.90
2018-03-27T14:13:56.780Z,3.90
2018-03-27T14:16:24.502Z,3.90
2018-03-27T14:18:52.076Z,3.80
2018-03-27T14:21:19.689Z,3.90
2018-03-27T14:23:47.306Z,4.20
2018-03-27T14:26:15.058Z,4.50
2018-03-27T14:28:42.612Z,4.80
2018-03-27T14:31:10.623Z,4.90
2018-03-27T14:33:38.180Z,4.80
2018-03-27T14:36:06.050Z,5.00
2018-03-27T14:38:33.654Z,5.10
2018-03-27T14:41:01.216Z,5.00
2018-03-27T14:43:29.044Z,4.80
2018-03-27T14:45:57.052Z,5.00
2018-03-27T14:48:25.300Z,5.10
2018-03-27T14:50:53.122Z,5.10
2018-03-27T14:53:21.528Z,5.10
2018-03-27T14:55:49.178Z,5.00
2018-03-27T14:58:16.795Z,4.90
2018-03-27T15:00:44.536Z,4.90
2018-03-27T15:03:12.405Z,5.00
2018-03-27T15:05:40.078Z,4.90
2018-03-27T15:08:07.957Z,5.00
2018-03-27T15:10:35.788Z,5.10
2018-03-27T15:13:03.373Z,4.90
2018-03-27T15:15:31.063Z,4.90
2018-03-27T15:17:58.612Z,4.60
2018-03-27T15:20:26.259Z,4.60
2018-03-27T15:22:53.836Z,4.60
2018-03-27T15:25:21.526Z,4.50
2018-03-27T15:27:49.238Z,4.50
2018-03-27T15:30:16.831Z,4.40
2018-03-27T15:32:44.565Z,4.20
2018-03-27T15:35:13.044Z,4.10
2018-03-27T15:37:40.763Z,4.00
2018-03-27T15:40:08.522Z,4.00
2018-03-27T15:42:36.235Z,4.00
2018-03-27T15:45:04.095Z,4.00
2018-03-27T15:47:31.722Z,3.90
2018-03-27T15:49:59.589Z,3.90
2018-03-27T15:52:27.184Z,3.90
2018-03-27T15:54:54.841Z,3.90
2018-03-27T15:57:22.424Z,3.90
2018-03-27T15:59:50.779Z,3.70
2018-03-27T16:02:19.110Z,3.70
2018-03-27T16:04:46.659Z,3.60
2018-03-27T16:07:14.241Z,3.60
2018-03-27T16:09:41.798Z,3.60
2018-03-27T16:12:09.607Z,3.60
2018-03-27T16:14:37.205Z,3.60
2018-03-27T16:17:04.760Z,3.50
2018-03-27T16:19:32.517Z,3.50
2018-03-27T16:22:00.274Z,3.50
2018-03-27T16:24:28.887Z,3.40
2018-03-27T16:26:56.578Z,3.40
2018-03-27T16:29:24.181Z,3.50
2018-03-27T16:31:51.732Z,3.40
2018-03-27T16:34:20.046Z,3.30
2018-03-27T16:36:47.664Z,3.30
2018-03-27T16:39:16.118Z,3.20
2018-03-27T16:41:43.672Z,3.20
2018-03-27T16:44:11.654Z,3.10
2018-03-27T16:46:39.291Z,3.10
2018-03-27T16:49:06.838Z,3.00
2018-03-27T16:51:34.857Z,3.00
2018-03-27T16:54:03.172Z,3.00
2018-03-27T16:56:30.967Z,3.00
2018-03-27T16:58:58.867Z,2.90
2018-03-27T17:01:27.347Z,2.90
2018-03-27T17:03:55.762Z,2.80
2018-03-27T17:06:23.350Z,2.80
2018-03-27T17:08:52.606Z,2.50
2018-03-27T17:11:20.148Z,2.50
2018-03-27T17:13:47.991Z,2.50
2018-03-27T17:16:15.797Z,2.60
2018-03-27T17:18:43.803Z,2.60
2018-03-27T17:21:11.400Z,2.40
2018-03-27T17:23:38.961Z,2.40
2018-03-27T17:26:06.520Z,2.50
2018-03-27T17:28:34.287Z,2.40
2018-03-27T17:31:01.843Z,2.50
2018-03-27T17:33:29.412Z,2.40
2018-03-27T17:35:57.002Z,2.50
2018-03-27T17:38:24.682Z,2.40
2018-03-27T17:40:52.274Z,2.20
2018-03-27T17:43:19.873Z,2.20
2018-03-27T17:45:47.435Z,2.30
2018-03-27T17:48:15.119Z,2.30
2018-03-27T17:50:42.970Z,2.30
2018-03-27T17:53:10.528Z,2.20
2018-03-27T17:55:38.178Z,2.30
2018-03-27T17:58:05.795Z,2.20
2018-03-27T18:00:33.371Z,2.20
2018-03-27T18:03:01.254Z,2.20
2018-03-27T18:05:29.302Z,2.20
2018-03-27T18:07:56.871Z,2.20
2018-03-27T18:10:24.758Z,2.20
2018-03-27T18:12:52.647Z,2.20
2018-03-27T18:15:20.379Z,2.20
2018-03-27T18:17:48.241Z,2.20
2018-03-27T18:20:15.988Z,2.20
2018-03-27T18:22:43.594Z,2.20
2018-03-27T18:25:11.163Z,2.20
2018-03-27T18:27:38.743Z,2.20
2018-03-27T18:30:07.202Z,2.20
2018-03-27T18:32:34.766Z,2.10
2018-03-27T18:35:02.530Z,2.20
2018-03-27T18:37:30.110Z,2.10
2018-03-27T18:39:57.780Z,2.10
2018-03-27T18:42:25.536Z,2.20
2018-03-27T18:44:53.106Z,2.10
2018-03-27T18:47:20.653Z,2.10
2018-03-27T18:49:48.678Z,2.10
2018-03-27T18:52:16.342Z,2.00
2018-03-27T18:54:43.902Z,2.00
2018-03-27T18:57:11.556Z,2.00
2018-03-27T18:59:39.127Z,2.00
2018-03-27T19:02:06.740Z,2.00
2018-03-27T19:04:34.482Z,2.10
2018-03-27T19:07:02.480Z,2.10
2018-03-27T19:09:30.144Z,2.00
2018-03-27T19:11:58.098Z,1.90
2018-03-27T19:14:25.698Z,2.00
2018-03-27T19:16:53.299Z,1.90
2018-03-27T19:19:21.276Z,2.00
2018-03-27T19:21:48.838Z,1.90
2018-03-27T19:24:16.385Z,1.90
2018-03-27T19:26:44.264Z,1.90
2018-03-27T19:29:11.827Z,1.80
2018-03-27T19:31:39.550Z,1.80
2018-03-27T19:34:08.038Z,1.80
2018-03-27T19:36:36.370Z,1.80
2018-03-27T19:39:04.164Z,1.70
2018-03-27T19:41:31.751Z,1.80
2018-03-27T19:43:59.683Z,1.80
2018-03-27T19:46:27.343Z,1.90
2018-03-27T19:48:54.943Z,1.90
2018-03-27T19:51:23.083Z,1.90
2018-03-27T19:53:50.649Z,1.80
2018-03-27T19:56:18.561Z,1.70
2018-03-27T19:58:46.426Z,1.70
2018-03-27T20:01:14.024Z,1.60
2018-03-27T20:03:42.387Z,1.60
2018-03-27T20:06:10.088Z,1.60
2018-03-27T20:08:38.550Z,1.60
2018-03-27T20:11:06.374Z,1.60
2018-03-27T20:13:34.278Z,1.60
2018-03-27T20:16:02.027Z,1.50
2018-03-27T20:18:29.696Z,1.60
2018-03-27T20:20:57.422Z,1.50
2018-03-27T20:23:25.419Z,1.50
2018-03-27T20:25:53.026Z,1.60
2018-03-27T20:28:20.585Z,1.50
2018-03-27T20:30:48.298Z,1.60
2018-03-27T20:33:17.099Z,1.50
2018-03-27T20:35:44.650Z,1.40
2018-03-27T20:38:12.261Z,1.40
2018-03-27T20:40:40.023Z,1.40
2018-03-27T20:43:07.610Z,1.30
2018-03-27T20:45:35.463Z,1.40
2018-03-27T20:48:03.327Z,1.20
2018-03-27T20:50:30.873Z,1.30
2018-03-27T20:52:59.265Z,1.20
2018-03-27T20:55:26.897Z,1.30
2018-03-27T20:57:54.800Z,1.20
2018-03-27T21:00:23.063Z,1.20
2018-03-27T21:02:50.677Z,1.20
2018-03-27T21:05:18.252Z,1.20
2018-03-27T21:07:45.857Z,1.20
2018-03-27T21:10:13.454Z,1.10
2018-03-27T21:12:41.087Z,1.20
2018-03-27T21:15:09.018Z,1.10
2018-03-27T21:17:36.727Z,1.10
2018-03-27T21:20:04.534Z,1.20
2018-03-27T21:22:32.089Z,1.10
2018-03-27T21:24:59.762Z,1.20
2018-03-27T21:27:27.546Z,1.10
2018-03-27T21:29:55.094Z,1.10
2018-03-27T21:32:22.682Z,1.10
2018-03-27T21:34:50.255Z,1.10
2018-03-27T21:37:18.009Z,1.10
2018-03-27T21:39:45.874Z,1.00
2018-03-27T21:42:13.711Z,1.20
2018-03-27T21:44:41.591Z,1.10
2018-03-27T21:47:09.210Z,1.10
2018-03-27T21:49:36.932Z,1.20
2018-03-27T21:52:04.502Z,1.20
2018-03-27T21:54:32.235Z,1.10
2018-03-27T21:56:59.909Z,1.00
2018-03-27T21:59:27.466Z,1.10
2018-03-27T22:01:55.058Z,1.00
2018-03-27T22:04:23.374Z,1.10
2018-03-27T22:06:50.927Z,1.10
2018-03-27T22:09:18.654Z,1.00
2018-03-27T22:11:47.272Z,1.10
2018-03-27T22:14:14.829Z,1.10
2018-03-27T22:16:42.625Z,1.10
2018-03-27T22:19:10.310Z,1.00
2018-03-27T22:21:38.630Z,0.90
2018-03-27T22:24:06.625Z,0.90
2018-03-27T22:26:34.177Z,0.90
2018-03-27T22:29:01.920Z,0.90
2018-03-27T22:31:30.034Z,0.90
2018-03-27T22:33:58.357Z,0.90
2018-03-27T22:36:25.934Z,0.90
2018-03-27T22:38:53.680Z,0.90
2018-03-27T22:41:21.300Z,1.00
2018-03-27T22:43:48.850Z,1.00
2018-03-27T22:46:16.604Z,1.10
2018-03-27T22:48:44.162Z,1.00
2018-03-27T22:51:11.711Z,0.90
2018-03-27T22:53:39.324Z,1.00
2018-03-27T22:56:07.031Z,1.10
2018-03-27T22:58:34.575Z,1.10
2018-03-27T23:01:02.554Z,0.90
2018-03-27T23:03:30.390Z,0.80
2018-03-27T23:05:57.959Z,0.80
2018-03-27T23:08:25.738Z,0.80
2018-03-27T23:10:53.416Z,0.80
2018-03-27T23:13:20.952Z,0.80
2018-03-27T23:15:48.548Z,0.70
2018-03-27T23:18:16.090Z,0.80
2018-03-27T23:20:44.609Z,0.60
2018-03-27T23:23:12.221Z,0.60
2018-03-27T23:25:39.930Z,0.70
2018-03-27T23:28:07.478Z,0.60
2018-03-27T23:30:35.820Z,0.50
2018-03-27T23:33:03.526Z,0.50
2018-03-27T23:35:31.197Z,0.40
2018-03-27T23:37:58.948Z,0.30
2018-03-27T23:40:27.266Z,0.10
2018-03-27T23:42:54.805Z,0.10
2018-03-27T23:45:22.537Z,0.10
2018-03-27T23:47:50.929Z,0.10
2018-03-27T23:50:18.474Z,0.10
2018-03-27T23:52:47.001Z,-0.10
2018-03-27T23:55:14.754Z,-0.10
2018-03-27T23:57:42.653Z,-0.20
